Terminal Aerodrome Forecast
Issued by NWS

Home | Current Version | Previous Version | Text Only | Print | Product List | Glossary On
Versions: 1 2 3 4 5 6 7 8 9 10 11 12 13 14 15 16 17 18 19 20 21 22 23 24 25 26 27 28 29
000
FTUS41 KBOX 302333
TAFBED
TAF
KBED 302333Z 3100/3124 09007KT P6SM SCT070 OVC090
     FM310600 VRB03KT P6SM VCSH OVC060
     FM311000 00000KT 5SM BR VCSH OVC020
     FM311300 VRB03KT 3SM BR VCSH OVC020
     FM311500 09004KT P6SM VCSH OVC015
     FM312000 10005KT P6SM VCSH OVC040=

USA.gov is the U.S. government's official web portal to all federal, state and local government web resources and services.